createdAt,value
2019-01-20T00:00:51.899Z,0.00
2019-01-20T00:01:51.890Z,0.00
2019-01-20T00:02:51.850Z,0.00
2019-01-20T00:03:51.843Z,0.00
2019-01-20T00:04:51.841Z,0.00
2019-01-20T00:05:51.839Z,0.00
2019-01-20T00:06:51.812Z,0.00
2019-01-20T00:07:51.811Z,0.00
2019-01-20T00:08:51.789Z,0.00
2019-01-20T00:09:51.778Z,0.00
2019-01-20T00:10:51.801Z,0.00
2019-01-20T00:11:51.755Z,0.00
2019-01-20T00:12:51.751Z,0.00
2019-01-20T00:13:51.745Z,0.00
2019-01-20T00:14:51.724Z,0.00
2019-01-20T00:15:51.749Z,0.00
2019-01-20T00:16:51.722Z,0.00
2019-01-20T00:17:51.687Z,0.00
2019-01-20T00:18:51.681Z,0.00
2019-01-20T00:19:51.672Z,0.00
2019-01-20T00:20:51.659Z,0.00
2019-01-20T00:21:51.670Z,0.00
2019-01-20T00:22:51.654Z,0.00
2019-01-20T00:23:51.640Z,0.00
2019-01-20T00:24:51.671Z,0.00
2019-01-20T00:25:51.617Z,0.00
2019-01-20T00:26:51.626Z,0.00
2019-01-20T00:27:51.591Z,0.00
2019-01-20T00:28:51.569Z,0.00
2019-01-20T00:29:51.569Z,0.00
2019-01-20T00:30:51.571Z,0.00
2019-01-20T00:31:51.548Z,0.00
2019-01-20T00:32:51.547Z,0.00
2019-01-20T00:33:51.517Z,0.00
2019-01-20T00:34:51.503Z,0.00
2019-01-20T00:35:51.500Z,0.00
2019-01-20T00:36:51.488Z,0.00
2019-01-20T00:37:51.501Z,0.00
2019-01-20T00:38:51.474Z,0.00
2019-01-20T00:39:51.466Z,0.00
2019-01-20T00:40:51.442Z,0.00
2019-01-20T00:41:51.447Z,0.00
2019-01-20T00:42:51.452Z,0.00
2019-01-20T00:43:51.414Z,0.00
2019-01-20T00:44:51.410Z,0.00
2019-01-20T00:45:51.389Z,0.00
2019-01-20T00:46:51.379Z,0.00
2019-01-20T00:47:51.372Z,0.00
2019-01-20T00:48:51.371Z,0.00
2019-01-20T00:49:51.375Z,0.00
2019-01-20T00:50:51.333Z,0.00
2019-01-20T00:51:51.323Z,0.00
2019-01-20T00:52:51.315Z,0.00
2019-01-20T00:53:51.307Z,0.00
2019-01-20T00:54:51.290Z,0.00
2019-01-20T00:55:51.295Z,0.00
2019-01-20T00:56:51.268Z,0.00
2019-01-20T00:57:51.264Z,0.00
2019-01-20T00:58:51.251Z,0.00
2019-01-20T00:59:51.252Z,0.00
2019-01-20T01:00:51.696Z,0.00
2019-01-20T01:01:51.221Z,0.00
2019-01-20T01:02:51.208Z,0.00
2019-01-20T01:03:51.195Z,0.00
2019-01-20T01:04:51.183Z,0.00
2019-01-20T01:05:51.198Z,0.00
2019-01-20T01:06:51.163Z,0.00
2019-01-20T01:07:51.163Z,0.00
2019-01-20T01:08:51.161Z,0.00
2019-01-20T01:09:51.131Z,0.00
2019-01-20T01:10:51.127Z,0.00
2019-01-20T01:11:51.129Z,0.00
2019-01-20T01:12:51.095Z,0.00
2019-01-20T01:13:51.086Z,0.00
2019-01-20T01:14:51.105Z,0.00
2019-01-20T01:15:51.073Z,0.00
2019-01-20T01:16:51.073Z,0.00
2019-01-20T01:17:51.049Z,0.00
2019-01-20T01:18:51.034Z,0.00
2019-01-20T01:19:51.036Z,0.00
2019-01-20T01:20:51.031Z,0.00
2019-01-20T01:21:51.034Z,0.00
2019-01-20T01:22:51.029Z,0.00
2019-01-20T01:23:50.996Z,0.00
2019-01-20T01:24:50.976Z,0.00
2019-01-20T01:25:50.960Z,0.00
2019-01-20T01:26:50.988Z,0.00
2019-01-20T01:27:50.962Z,0.00
2019-01-20T01:28:50.927Z,0.00
2019-01-20T01:29:50.928Z,0.00
2019-01-20T01:30:50.911Z,0.00
2019-01-20T01:31:50.914Z,0.00
2019-01-20T01:32:50.907Z,0.00
2019-01-20T01:33:50.874Z,0.00
2019-01-20T01:34:50.869Z,0.00
2019-01-20T01:35:50.862Z,0.00
2019-01-20T01:36:50.850Z,0.00
2019-01-20T01:37:50.860Z,0.00
2019-01-20T01:38:50.832Z,0.00
2019-01-20T01:39:50.815Z,0.00
2019-01-20T01:40:50.805Z,0.00
2019-01-20T01:41:50.798Z,0.00
2019-01-20T01:42:50.810Z,0.00
2019-01-20T01:43:50.765Z,0.00
2019-01-20T01:44:50.778Z,0.00
2019-01-20T01:45:50.759Z,0.00
2019-01-20T01:46:50.743Z,0.00
2019-01-20T01:47:50.726Z,0.00
2019-01-20T01:48:50.732Z,0.00
2019-01-20T01:49:50.716Z,0.00
2019-01-20T01:50:50.693Z,0.00
2019-01-20T01:51:50.687Z,0.00
2019-01-20T01:52:50.687Z,0.00
2019-01-20T01:53:50.696Z,0.00
2019-01-20T01:54:50.654Z,0.00
2019-01-20T01:55:50.637Z,0.00
2019-01-20T01:56:50.629Z,0.00
2019-01-20T01:57:50.620Z,0.00
2019-01-20T01:58:50.676Z,0.00
2019-01-20T01:59:50.607Z,0.00
2019-01-20T02:00:50.640Z,0.00
2019-01-20T02:01:50.582Z,0.00
2019-01-20T02:02:50.582Z,0.00
2019-01-20T02:03:50.592Z,0.00
2019-01-20T02:04:50.544Z,0.00
2019-01-20T02:05:50.537Z,0.00
2019-01-20T02:06:50.528Z,0.00
2019-01-20T02:07:50.523Z,0.00
2019-01-20T02:08:50.531Z,0.00
2019-01-20T02:09:50.513Z,0.00
2019-01-20T02:10:50.528Z,0.00
2019-01-20T02:11:50.482Z,0.00
2019-01-20T02:12:50.458Z,0.00
2019-01-20T02:13:50.454Z,0.00
2019-01-20T02:14:50.468Z,0.00
2019-01-20T02:15:50.426Z,0.00
2019-01-20T02:16:50.417Z,0.00
2019-01-20T02:17:50.444Z,0.00
2019-01-20T02:18:50.406Z,0.00
2019-01-20T02:19:50.416Z,0.00
2019-01-20T02:20:50.376Z,0.00
2019-01-20T02:21:50.361Z,0.00
2019-01-20T02:22:50.355Z,0.00
2019-01-20T02:23:50.367Z,0.00
2019-01-20T02:24:50.337Z,0.00
2019-01-20T02:25:50.339Z,0.00
2019-01-20T02:26:50.337Z,0.00
2019-01-20T02:27:50.298Z,0.00
2019-01-20T02:28:50.289Z,0.00
2019-01-20T02:29:50.284Z,0.00
2019-01-20T02:30:50.319Z,0.00
2019-01-20T02:31:50.269Z,0.00
2019-01-20T02:32:50.244Z,0.00
2019-01-20T02:33:50.264Z,0.00
2019-01-20T02:34:50.222Z,0.00
2019-01-20T02:35:50.233Z,0.00
2019-01-20T02:36:50.221Z,0.00
2019-01-20T02:37:50.197Z,0.00
2019-01-20T02:38:50.187Z,0.00
2019-01-20T02:39:50.185Z,0.00
2019-01-20T02:40:50.196Z,0.00
2019-01-20T02:41:55.135Z,0.00
2019-01-20T02:42:51.166Z,0.00
2019-01-20T02:43:50.133Z,0.00
2019-01-20T02:44:50.121Z,0.00
2019-01-20T02:45:50.106Z,0.00
2019-01-20T02:46:50.128Z,0.00
2019-01-20T02:47:50.086Z,0.00
2019-01-20T02:48:50.083Z,0.00
2019-01-20T02:49:50.065Z,0.00
2019-01-20T02:50:50.052Z,0.00
2019-01-20T02:51:50.059Z,0.00
2019-01-20T02:52:50.051Z,0.00
2019-01-20T02:53:50.019Z,0.00
2019-01-20T02:54:50.010Z,0.00
2019-01-20T02:55:50.001Z,0.00
2019-01-20T02:56:50.026Z,0.00
2019-01-20T02:57:49.985Z,0.00
2019-01-20T02:58:49.983Z,0.00
2019-01-20T02:59:49.956Z,0.00
2019-01-20T03:00:49.944Z,0.00
2019-01-20T03:01:49.942Z,0.00
2019-01-20T03:02:49.943Z,0.00
2019-01-20T03:03:49.921Z,0.00
2019-01-20T03:04:49.918Z,0.00
2019-01-20T03:05:49.909Z,0.00
2019-01-20T03:06:49.901Z,0.00
2019-01-20T03:07:49.890Z,0.00
2019-01-20T03:08:49.863Z,0.00
2019-01-20T03:09:49.858Z,0.00
2019-01-20T03:10:49.840Z,0.00
2019-01-20T03:11:49.828Z,0.00
2019-01-20T03:12:49.854Z,0.00
2019-01-20T03:13:49.814Z,0.00
2019-01-20T03:14:49.801Z,0.00
2019-01-20T03:15:49.793Z,0.00
2019-01-20T03:16:49.777Z,0.00
2019-01-20T03:17:49.792Z,0.00
2019-01-20T03:18:49.772Z,0.00
2019-01-20T03:19:49.748Z,0.00
2019-01-20T03:20:49.734Z,0.00
2019-01-20T03:21:49.737Z,0.00
2019-01-20T03:22:49.716Z,0.00
2019-01-20T03:23:49.722Z,0.00
2019-01-20T03:24:49.714Z,0.00
2019-01-20T03:25:49.679Z,0.00
2019-01-20T03:26:49.672Z,0.00
2019-01-20T03:27:49.677Z,0.00
2019-01-20T03:28:49.688Z,0.00
2019-01-20T03:29:49.679Z,0.00
2019-01-20T03:30:49.652Z,0.00
2019-01-20T03:31:49.619Z,0.00
2019-01-20T03:32:49.619Z,0.00
2019-01-20T03:33:49.624Z,0.00
2019-01-20T03:34:49.590Z,0.00
2019-01-20T03:35:49.575Z,0.00
2019-01-20T03:36:49.568Z,0.00
2019-01-20T03:37:49.556Z,0.00
2019-01-20T03:38:49.550Z,0.00
2019-01-20T03:39:49.589Z,0.00
2019-01-20T03:40:49.528Z,0.00
2019-01-20T03:41:49.516Z,0.00
2019-01-20T03:42:49.511Z,0.00
2019-01-20T03:43:49.487Z,0.00
2019-01-20T03:44:49.500Z,0.00
2019-01-20T03:45:49.472Z,0.00
2019-01-20T03:46:49.458Z,0.00
2019-01-20T03:47:49.453Z,0.00
2019-01-20T03:48:49.433Z,0.00
2019-01-20T03:49:49.456Z,0.00
2019-01-20T03:50:49.416Z,0.00
2019-01-20T03:51:49.404Z,0.00
2019-01-20T03:52:49.424Z,0.00
2019-01-20T03:53:49.383Z,0.00
2019-01-20T03:54:49.369Z,0.00
2019-01-20T03:55:49.387Z,0.00
2019-01-20T03:56:49.351Z,0.00
2019-01-20T03:57:49.335Z,0.00
2019-01-20T03:58:49.323Z,0.00
2019-01-20T03:59:49.315Z,0.00
2019-01-20T04:00:49.330Z,0.00
2019-01-20T04:01:49.299Z,0.00
2019-01-20T04:02:49.302Z,0.00
2019-01-20T04:03:49.273Z,0.00
2019-01-20T04:04:49.266Z,0.00
2019-01-20T04:05:49.288Z,0.00
2019-01-20T04:06:49.239Z,0.00
2019-01-20T04:07:49.230Z,0.00
2019-01-20T04:08:49.233Z,0.00
2019-01-20T04:09:49.206Z,0.00
2019-01-20T04:10:49.240Z,0.00
2019-01-20T04:11:49.190Z,0.00
2019-01-20T04:12:49.182Z,0.00
2019-01-20T04:13:49.167Z,0.00
2019-01-20T04:14:49.173Z,0.00
2019-01-20T04:15:49.141Z,0.00
2019-01-20T04:16:49.162Z,0.00
2019-01-20T04:17:49.134Z,0.00
2019-01-20T04:18:49.120Z,0.00
2019-01-20T04:19:49.102Z,0.00
2019-01-20T04:20:49.104Z,0.00
2019-01-20T04:21:49.105Z,0.00
2019-01-20T04:22:49.075Z,0.00
2019-01-20T04:23:50.111Z,0.00
2019-01-20T04:24:49.058Z,0.00
2019-01-20T04:25:49.048Z,0.00
2019-01-20T04:26:49.052Z,0.00
2019-01-20T04:27:49.016Z,0.00
2019-01-20T04:28:49.008Z,0.00
2019-01-20T04:29:49.000Z,0.00
2019-01-20T04:30:48.985Z,0.00
2019-01-20T04:31:49.016Z,0.00
2019-01-20T04:32:48.969Z,0.00
2019-01-20T04:33:48.953Z,0.00
2019-01-20T04:34:48.946Z,0.00
2019-01-20T04:35:48.938Z,0.00
2019-01-20T04:36:48.917Z,0.00
2019-01-20T04:37:48.936Z,0.00
2019-01-20T04:38:48.917Z,0.00
2019-01-20T04:39:48.894Z,0.00
2019-01-20T04:40:48.885Z,0.00
2019-01-20T04:41:48.870Z,0.00
2019-01-20T04:42:48.888Z,0.00
2019-01-20T04:43:48.852Z,0.00
2019-01-20T04:44:48.834Z,0.00
2019-01-20T04:45:48.824Z,0.00
2019-01-20T04:46:48.830Z,0.00
2019-01-20T04:47:48.842Z,0.00
2019-01-20T04:48:48.792Z,0.00
2019-01-20T04:49:48.782Z,0.00
2019-01-20T04:50:48.769Z,0.00
2019-01-20T04:51:48.765Z,0.00
2019-01-20T04:52:48.791Z,0.00
2019-01-20T04:53:48.744Z,0.00
2019-01-20T04:54:48.736Z,0.00
2019-01-20T04:55:48.727Z,0.00
2019-01-20T04:56:48.712Z,0.00
2019-01-20T04:57:48.739Z,0.00
2019-01-20T04:58:48.698Z,0.00
2019-01-20T04:59:48.689Z,0.00
2019-01-20T05:00:48.673Z,0.00
2019-01-20T05:01:48.665Z,0.00
2019-01-20T05:02:48.667Z,0.00
2019-01-20T05:03:48.630Z,0.00
2019-01-20T05:04:48.627Z,0.00
2019-01-20T05:05:48.620Z,0.00
2019-01-20T05:06:48.595Z,0.00
2019-01-20T05:07:48.596Z,0.00
2019-01-20T05:08:48.603Z,0.00
2019-01-20T05:09:48.566Z,0.00
2019-01-20T05:10:48.554Z,0.00
2019-01-20T05:11:48.549Z,0.00
2019-01-20T05:12:48.557Z,0.00
2019-01-20T05:13:48.543Z,0.00
2019-01-20T05:14:48.510Z,0.00
2019-01-20T05:15:48.502Z,0.00
2019-01-20T05:16:48.493Z,0.00
2019-01-20T05:17:48.485Z,0.00
2019-01-20T05:18:48.502Z,0.00
2019-01-20T05:19:48.458Z,0.00
2019-01-20T05:20:48.446Z,0.00
2019-01-20T05:21:48.437Z,0.00
2019-01-20T05:22:48.425Z,0.00
2019-01-20T05:23:48.432Z,0.00
2019-01-20T05:24:48.412Z,0.00
2019-01-20T05:25:48.391Z,0.00
2019-01-20T05:26:48.396Z,0.00
2019-01-20T05:27:48.376Z,0.00
2019-01-20T05:28:48.394Z,0.00
2019-01-20T05:29:48.350Z,0.00
2019-01-20T05:30:48.339Z,0.00
2019-01-20T05:31:48.346Z,0.00
2019-01-20T05:32:48.319Z,0.00
2019-01-20T05:33:48.336Z,0.00
2019-01-20T05:34:48.301Z,0.00
2019-01-20T05:35:48.294Z,0.00
2019-01-20T05:36:48.280Z,0.00
2019-01-20T05:37:48.306Z,0.00
2019-01-20T05:38:48.294Z,0.00
2019-01-20T05:39:48.256Z,0.00
2019-01-20T05:40:48.233Z,0.00
2019-01-20T05:41:48.226Z,0.00
2019-01-20T05:42:48.226Z,0.00
2019-01-20T05:43:48.288Z,0.00
2019-01-20T05:44:48.210Z,0.00
2019-01-20T05:45:48.191Z,0.00
2019-01-20T05:46:48.193Z,0.00
2019-01-20T05:47:48.155Z,0.00
2019-01-20T05:48:48.145Z,0.00
2019-01-20T05:49:48.170Z,0.00
2019-01-20T05:50:48.129Z,0.00
2019-01-20T05:51:48.141Z,0.00
2019-01-20T05:52:48.143Z,0.00
2019-01-20T05:53:48.095Z,0.00
2019-01-20T05:54:48.118Z,0.00
2019-01-20T05:55:48.072Z,0.00
2019-01-20T05:56:48.060Z,0.00
2019-01-20T05:57:48.055Z,0.00
2019-01-20T05:58:48.045Z,0.00
2019-01-20T05:59:48.068Z,0.00
2019-01-20T06:00:48.056Z,0.00
2019-01-20T06:01:48.011Z,0.00
2019-01-20T06:02:47.999Z,0.00
2019-01-20T06:03:47.985Z,0.00
2019-01-20T06:04:47.993Z,0.00
2019-01-20T06:05:48.012Z,0.00
2019-01-20T06:06:47.953Z,0.00
2019-01-20T06:07:47.981Z,0.00
2019-01-20T06:08:47.934Z,0.00
2019-01-20T06:09:47.946Z,0.00
2019-01-20T06:10:47.920Z,0.00
2019-01-20T06:11:47.912Z,0.00
2019-01-20T06:12:53.882Z,0.00
2019-01-20T06:13:48.874Z,0.00
2019-01-20T06:14:47.865Z,0.00
2019-01-20T06:15:47.865Z,0.00
2019-01-20T06:16:47.845Z,0.00
2019-01-20T06:17:47.834Z,0.00
2019-01-20T06:18:47.861Z,0.00
2019-01-20T06:19:47.817Z,0.00
2019-01-20T06:20:47.806Z,0.00
2019-01-20T06:21:47.824Z,0.00
2019-01-20T06:22:47.783Z,0.00
2019-01-20T06:23:47.798Z,0.00
2019-01-20T06:24:47.772Z,0.00
2019-01-20T06:25:47.750Z,0.00
2019-01-20T06:26:47.736Z,0.00
2019-01-20T06:27:47.730Z,0.00
2019-01-20T06:28:47.751Z,0.00
2019-01-20T06:29:47.709Z,0.00
2019-01-20T06:30:47.702Z,0.00
2019-01-20T06:31:47.684Z,0.00
2019-01-20T06:32:47.672Z,0.00
2019-01-20T06:33:47.664Z,0.00
2019-01-20T06:34:48.878Z,0.00
2019-01-20T06:35:47.651Z,0.00
2019-01-20T06:36:47.641Z,0.00
2019-01-20T06:37:47.619Z,0.00
2019-01-20T06:38:47.610Z,0.00
2019-01-20T06:39:47.616Z,0.00
2019-01-20T06:40:47.593Z,0.00
2019-01-20T06:41:47.581Z,0.00
2019-01-20T06:42:47.568Z,4.00
2019-01-20T06:43:47.569Z,4.00
2019-01-20T06:44:47.586Z,0.00
2019-01-20T06:45:47.537Z,0.00
2019-01-20T06:46:47.527Z,4.00
2019-01-20T06:47:47.522Z,4.00
2019-01-20T06:48:47.537Z,4.00
2019-01-20T06:49:47.493Z,4.00
2019-01-20T06:50:47.516Z,4.00
2019-01-20T06:51:47.476Z,4.00
2019-01-20T06:52:47.460Z,4.00
2019-01-20T06:53:47.452Z,8.00
2019-01-20T06:54:47.443Z,8.00
2019-01-20T06:55:47.445Z,12.00
2019-01-20T06:56:47.433Z,8.00
2019-01-20T06:57:47.418Z,8.00
2019-01-20T06:58:47.403Z,12.00
2019-01-20T06:59:47.386Z,12.00
2019-01-20T07:00:48.249Z,12.00
2019-01-20T07:01:47.370Z,16.00
2019-01-20T07:02:47.353Z,16.00
2019-01-20T07:03:47.354Z,20.00
2019-01-20T07:04:47.337Z,20.00
2019-01-20T07:05:47.323Z,20.00
2019-01-20T07:06:47.347Z,24.00
2019-01-20T07:07:47.305Z,24.00
2019-01-20T07:08:47.294Z,28.00
2019-01-20T07:09:47.280Z,28.00
2019-01-20T07:10:47.266Z,32.00
2019-01-20T07:11:47.279Z,32.00
2019-01-20T07:12:47.249Z,36.00
2019-01-20T07:13:47.238Z,36.00
2019-01-20T07:14:47.223Z,40.00
2019-01-20T07:15:47.227Z,44.00
2019-01-20T07:16:47.283Z,48.00
2019-01-20T07:17:47.194Z,48.00
2019-01-20T07:18:47.180Z,52.00
2019-01-20T07:19:47.175Z,56.00
2019-01-20T07:20:47.163Z,56.00
2019-01-20T07:21:47.183Z,60.00
2019-01-20T07:22:47.137Z,60.00
2019-01-20T07:23:47.132Z,64.00
2019-01-20T07:24:47.124Z,68.00
2019-01-20T07:25:47.115Z,72.00
2019-01-20T07:26:47.123Z,76.00
2019-01-20T07:27:47.101Z,76.00
2019-01-20T07:28:47.087Z,76.00
2019-01-20T07:29:47.067Z,84.00
2019-01-20T07:30:47.062Z,88.00
2019-01-20T07:31:47.049Z,88.00
2019-01-20T07:32:47.051Z,92.00
2019-01-20T07:33:47.037Z,92.00
2019-01-20T07:34:47.015Z,96.00
2019-01-20T07:35:47.076Z,100.00
2019-01-20T07:36:46.987Z,100.00
2019-01-20T07:37:47.005Z,104.00
2019-01-20T07:38:46.988Z,108.00
2019-01-20T07:39:46.960Z,112.00
2019-01-20T07:40:46.948Z,112.00
2019-01-20T07:41:46.939Z,116.00
2019-01-20T07:42:46.951Z,120.00
2019-01-20T07:43:46.934Z,120.00
2019-01-20T07:44:46.937Z,124.00
2019-01-20T07:45:46.898Z,128.00
2019-01-20T07:46:46.880Z,132.00
2019-01-20T07:47:46.871Z,132.00
2019-01-20T07:48:46.882Z,136.00
2019-01-20T07:49:46.889Z,136.00
2019-01-20T07:50:47.801Z,144.00
2019-01-20T07:51:46.837Z,144.00
2019-01-20T07:52:46.850Z,148.00
2019-01-20T07:53:46.807Z,148.00
2019-01-20T07:54:46.796Z,152.00
2019-01-20T07:55:46.795Z,156.00
2019-01-20T07:56:46.785Z,156.00
2019-01-20T07:57:46.791Z,160.00
2019-01-20T07:58:46.759Z,164.00
2019-01-20T07:59:46.747Z,164.00
2019-01-20T08:00:46.730Z,168.00
2019-01-20T08:01:46.736Z,168.00
2019-01-20T08:02:46.743Z,172.00
2019-01-20T08:03:46.699Z,176.00
2019-01-20T08:04:46.690Z,180.00
2019-01-20T08:05:46.695Z,180.00
2019-01-20T08:06:46.676Z,188.00
2019-01-20T08:07:46.656Z,184.00
2019-01-20T08:08:46.665Z,188.00
2019-01-20T08:09:46.643Z,192.00
2019-01-20T08:10:46.627Z,192.00
2019-01-20T08:11:46.626Z,196.00
2019-01-20T08:12:46.613Z,200.00
2019-01-20T08:13:46.615Z,204.00
2019-01-20T08:14:46.586Z,204.00
2019-01-20T08:15:46.571Z,208.00
2019-01-20T08:16:46.565Z,212.00
2019-01-20T08:17:46.555Z,216.00
2019-01-20T08:18:46.570Z,216.00
2019-01-20T08:19:46.578Z,220.00
2019-01-20T08:20:46.524Z,224.00
2019-01-20T08:21:46.511Z,228.00
2019-01-20T08:22:46.503Z,232.00
2019-01-20T08:23:46.512Z,236.00
2019-01-20T08:24:46.476Z,240.00
2019-01-20T08:25:46.466Z,240.00
2019-01-20T08:26:48.021Z,244.00
2019-01-20T08:27:46.441Z,248.00
2019-01-20T08:28:46.462Z,252.00
2019-01-20T08:29:46.425Z,256.00
2019-01-20T08:30:46.410Z,260.00
2019-01-20T08:31:46.401Z,268.00
2019-01-20T08:32:46.398Z,272.00
2019-01-20T08:33:46.384Z,272.00
2019-01-20T08:34:46.398Z,280.00
2019-01-20T08:35:46.357Z,284.00
2019-01-20T08:36:46.374Z,288.00
2019-01-20T08:37:46.333Z,292.00
2019-01-20T08:38:46.345Z,296.00
2019-01-20T08:39:46.321Z,300.00
2019-01-20T08:40:46.326Z,304.00
2019-01-20T08:41:46.295Z,308.00
2019-01-20T08:42:46.285Z,312.00
2019-01-20T08:43:46.287Z,316.00
2019-01-20T08:44:46.270Z,320.00
2019-01-20T08:45:46.250Z,324.00
2019-01-20T08:46:46.240Z,328.00
2019-01-20T08:47:46.232Z,332.00
2019-01-20T08:48:46.263Z,336.00
2019-01-20T08:49:46.205Z,340.00
2019-01-20T08:50:46.212Z,344.00
2019-01-20T08:51:46.204Z,352.00
2019-01-20T08:52:46.182Z,352.00
2019-01-20T08:53:46.190Z,356.00
2019-01-20T08:54:46.158Z,364.00
2019-01-20T08:55:46.150Z,364.00
2019-01-20T08:56:46.131Z,368.00
2019-01-20T08:57:46.122Z,372.00
2019-01-20T08:58:46.111Z,376.00
2019-01-20T08:59:46.121Z,376.00
2019-01-20T09:00:46.087Z,380.00
2019-01-20T09:01:46.082Z,384.00
2019-01-20T09:02:46.081Z,388.00
2019-01-20T09:03:46.057Z,392.00
2019-01-20T09:04:46.074Z,396.00
2019-01-20T09:05:46.042Z,400.00
2019-01-20T09:06:46.039Z,408.00
2019-01-20T09:07:46.018Z,412.00
2019-01-20T09:08:46.005Z,416.00
2019-01-20T09:09:46.069Z,420.00
2019-01-20T09:10:46.001Z,428.00
2019-01-20T09:11:45.975Z,440.00
2019-01-20T09:12:45.960Z,452.00
2019-01-20T09:13:45.953Z,456.00
2019-01-20T09:14:45.969Z,460.00
2019-01-20T09:15:45.927Z,460.00
2019-01-20T09:16:45.916Z,464.00
2019-01-20T09:17:45.922Z,472.00
2019-01-20T09:18:45.901Z,476.00
2019-01-20T09:19:45.910Z,476.00
2019-01-20T09:20:45.875Z,484.00
2019-01-20T09:21:45.867Z,488.00
2019-01-20T09:22:45.870Z,492.00
2019-01-20T09:23:45.862Z,492.00
2019-01-20T09:24:45.859Z,496.00
2019-01-20T09:25:45.831Z,500.00
2019-01-20T09:26:45.808Z,508.00
2019-01-20T09:27:45.797Z,508.00
2019-01-20T09:28:45.800Z,512.00
2019-01-20T09:29:46.159Z,516.00
2019-01-20T09:30:45.788Z,516.00
2019-01-20T09:31:45.756Z,516.00
2019-01-20T09:32:45.762Z,508.00
2019-01-20T09:33:45.736Z,508.00
2019-01-20T09:34:45.733Z,508.00
2019-01-20T09:35:45.739Z,508.00
2019-01-20T09:36:45.704Z,516.00
2019-01-20T09:37:45.698Z,520.00
2019-01-20T09:38:45.701Z,520.00
2019-01-20T09:39:45.671Z,520.00
2019-01-20T09:40:45.683Z,524.00
2019-01-20T09:41:45.652Z,532.00
2019-01-20T09:42:45.639Z,532.00
2019-01-20T09:43:47.430Z,528.00
2019-01-20T09:44:45.647Z,528.00
2019-01-20T09:45:45.646Z,528.00
2019-01-20T09:46:45.604Z,528.00
2019-01-20T09:47:45.617Z,528.00
2019-01-20T09:48:45.579Z,524.00
2019-01-20T09:49:45.576Z,524.00
2019-01-20T09:50:45.579Z,520.00
2019-01-20T09:51:45.545Z,524.00
2019-01-20T09:52:45.537Z,524.00
2019-01-20T09:53:45.540Z,528.00
2019-01-20T09:54:45.557Z,524.00
2019-01-20T09:55:45.546Z,520.00
2019-01-20T09:56:45.497Z,524.00
2019-01-20T09:57:45.483Z,532.00
2019-01-20T09:58:45.466Z,528.00
2019-01-20T09:59:45.459Z,528.00
2019-01-20T10:00:45.479Z,520.00
2019-01-20T10:01:45.437Z,524.00
2019-01-20T10:02:45.439Z,528.00
2019-01-20T10:03:45.417Z,532.00
2019-01-20T10:04:45.403Z,528.00
2019-01-20T10:05:45.392Z,524.00
2019-01-20T10:06:45.400Z,532.00
2019-01-20T10:07:45.378Z,540.00
2019-01-20T10:08:45.370Z,540.00
2019-01-20T10:09:45.350Z,544.00
2019-01-20T10:10:45.345Z,552.00
2019-01-20T10:11:45.421Z,556.00
2019-01-20T10:12:45.330Z,556.00
2019-01-20T10:13:45.343Z,552.00
2019-01-20T10:14:45.295Z,560.00
2019-01-20T10:15:45.292Z,564.00
2019-01-20T10:16:45.305Z,572.00
2019-01-20T10:17:45.272Z,564.00
2019-01-20T10:18:45.261Z,564.00
2019-01-20T10:19:45.248Z,568.00
2019-01-20T10:20:45.236Z,572.00
2019-01-20T10:21:45.637Z,572.00
2019-01-20T10:22:45.219Z,572.00
2019-01-20T10:23:45.210Z,568.00
2019-01-20T10:24:45.203Z,564.00
2019-01-20T10:25:45.182Z,572.00
2019-01-20T10:26:45.171Z,576.00
2019-01-20T10:27:45.189Z,576.00
2019-01-20T10:28:45.160Z,576.00
2019-01-20T10:29:45.139Z,580.00
2019-01-20T10:30:45.133Z,580.00
2019-01-20T10:31:45.114Z,580.00
2019-01-20T10:32:47.989Z,576.00
2019-01-20T10:33:45.105Z,580.00
2019-01-20T10:34:45.087Z,576.00
2019-01-20T10:35:45.076Z,580.00
2019-01-20T10:36:45.076Z,584.00
2019-01-20T10:37:45.069Z,584.00
2019-01-20T10:38:45.048Z,580.00
2019-01-20T10:39:45.036Z,568.00
2019-01-20T10:40:45.023Z,572.00
2019-01-20T10:41:45.010Z,572.00
2019-01-20T10:42:45.016Z,564.00
2019-01-20T10:43:44.986Z,564.00
2019-01-20T10:44:44.979Z,560.00
2019-01-20T10:45:44.968Z,560.00
2019-01-20T10:46:44.954Z,552.00
2019-01-20T10:47:44.991Z,556.00
2019-01-20T10:48:44.934Z,556.00
2019-01-20T10:49:44.931Z,556.00
2019-01-20T10:50:44.913Z,556.00
2019-01-20T10:51:44.907Z,556.00
2019-01-20T10:52:44.925Z,556.00
2019-01-20T10:53:44.884Z,552.00
2019-01-20T10:54:44.867Z,544.00
2019-01-20T10:55:44.856Z,548.00
2019-01-20T10:56:44.851Z,548.00
2019-01-20T10:57:44.866Z,548.00
2019-01-20T10:58:44.879Z,544.00
2019-01-20T10:59:44.819Z,548.00
2019-01-20T11:00:44.819Z,548.00
2019-01-20T11:01:44.809Z,544.00
2019-01-20T11:02:44.782Z,544.00
2019-01-20T11:03:44.771Z,540.00
2019-01-20T11:04:44.782Z,540.00
2019-01-20T11:05:44.773Z,544.00
2019-01-20T11:06:44.736Z,536.00
2019-01-20T11:07:44.726Z,536.00
2019-01-20T11:08:44.716Z,536.00
2019-01-20T11:09:44.706Z,540.00
2019-01-20T11:10:44.727Z,544.00
2019-01-20T11:11:44.690Z,540.00
2019-01-20T11:12:44.673Z,540.00
2019-01-20T11:13:44.689Z,532.00
2019-01-20T11:14:44.653Z,532.00
2019-01-20T11:15:44.657Z,532.00
2019-01-20T11:16:44.639Z,532.00
2019-01-20T11:17:44.621Z,532.00
2019-01-20T11:18:44.626Z,528.00
2019-01-20T11:19:44.594Z,528.00
2019-01-20T11:20:44.588Z,528.00
2019-01-20T11:21:44.601Z,528.00
2019-01-20T11:22:44.572Z,532.00
2019-01-20T11:23:44.583Z,528.00
2019-01-20T11:24:44.541Z,524.00
2019-01-20T11:25:44.541Z,524.00
2019-01-20T11:26:44.536Z,520.00
2019-01-20T11:27:44.536Z,516.00
2019-01-20T11:28:44.516Z,512.00
2019-01-20T11:29:44.503Z,504.00
2019-01-20T11:30:44.474Z,508.00
2019-01-20T11:31:44.466Z,508.00
2019-01-20T11:32:44.470Z,504.00
2019-01-20T11:33:44.469Z,500.00
2019-01-20T11:34:44.433Z,496.00
2019-01-20T11:35:44.426Z,508.00
2019-01-20T11:36:44.414Z,512.00
2019-01-20T11:37:44.401Z,508.00
2019-01-20T11:38:44.409Z,492.00
2019-01-20T11:39:44.397Z,484.00
2019-01-20T11:40:44.367Z,492.00
2019-01-20T11:41:44.370Z,504.00
2019-01-20T11:42:44.353Z,500.00
2019-01-20T11:43:44.370Z,496.00
2019-01-20T11:44:44.337Z,500.00
2019-01-20T11:45:44.314Z,504.00
2019-01-20T11:46:44.308Z,456.00
2019-01-20T11:47:44.311Z,492.00
2019-01-20T11:48:44.283Z,504.00
2019-01-20T11:49:44.287Z,504.00
2019-01-20T11:50:44.333Z,504.00
2019-01-20T11:51:44.254Z,500.00
2019-01-20T11:52:44.243Z,500.00
2019-01-20T11:53:44.238Z,500.00
2019-01-20T11:54:44.245Z,500.00
2019-01-20T11:55:44.204Z,500.00
2019-01-20T11:56:44.198Z,492.00
2019-01-20T11:57:44.183Z,496.00
2019-01-20T11:58:44.179Z,500.00
2019-01-20T11:59:44.197Z,496.00
2019-01-20T12:00:44.154Z,488.00
2019-01-20T12:01:44.152Z,492.00
2019-01-20T12:02:44.150Z,504.00
2019-01-20T12:03:44.117Z,500.00
2019-01-20T12:04:44.119Z,500.00
2019-01-20T12:05:44.118Z,504.00
2019-01-20T12:06:44.095Z,504.00
2019-01-20T12:07:44.098Z,500.00
2019-01-20T12:08:44.085Z,504.00
2019-01-20T12:09:44.061Z,500.00
2019-01-20T12:10:44.074Z,508.00
2019-01-20T12:11:44.060Z,508.00
2019-01-20T12:12:44.028Z,500.00
2019-01-20T12:13:44.019Z,500.00
2019-01-20T12:14:44.008Z,504.00
2019-01-20T12:15:43.993Z,504.00
2019-01-20T12:16:43.998Z,504.00
2019-01-20T12:17:43.973Z,500.00
2019-01-20T12:18:43.957Z,500.00
2019-01-20T12:19:43.950Z,504.00
2019-01-20T12:20:43.936Z,504.00
2019-01-20T12:21:43.958Z,512.00
2019-01-20T12:22:43.915Z,500.00
2019-01-20T12:23:43.904Z,504.00
2019-01-20T12:24:43.936Z,504.00
2019-01-20T12:25:43.903Z,504.00
2019-01-20T12:26:43.926Z,508.00
2019-01-20T12:27:43.865Z,512.00
2019-01-20T12:28:43.855Z,508.00
2019-01-20T12:29:43.841Z,512.00
2019-01-20T12:30:43.837Z,504.00
2019-01-20T12:31:43.852Z,480.00
2019-01-20T12:32:43.809Z,468.00
2019-01-20T12:33:43.796Z,488.00
2019-01-20T12:34:43.818Z,504.00
2019-01-20T12:35:43.779Z,508.00
2019-01-20T12:36:43.768Z,512.00
2019-01-20T12:37:43.767Z,504.00
2019-01-20T12:38:43.741Z,492.00
2019-01-20T12:39:43.738Z,508.00
2019-01-20T12:40:43.741Z,504.00
2019-01-20T12:41:43.707Z,500.00
2019-01-20T12:42:43.722Z,500.00
2019-01-20T12:43:43.707Z,496.00
2019-01-20T12:44:43.704Z,496.00
2019-01-20T12:45:43.686Z,488.00
2019-01-20T12:46:43.658Z,492.00
2019-01-20T12:47:43.640Z,484.00
2019-01-20T12:48:43.642Z,496.00
2019-01-20T12:49:43.666Z,500.00
2019-01-20T12:50:43.613Z,500.00
2019-01-20T12:51:43.613Z,484.00
2019-01-20T12:52:43.601Z,476.00
2019-01-20T12:53:43.582Z,472.00
2019-01-20T12:54:43.568Z,484.00
2019-01-20T12:55:43.572Z,488.00